Dades meteomassalio
Diari Summary for Noviembre 11, 2017 Units:  Metric    English   Both
« Previous Day
Next Day »
Diari Semanal Mensual Anual Personalitzat
  Maxima: Minima: Mijana:
Temperatura: -17.8 °C -12.2 °C -10.3 °C
Rosada: -17.8 °C -15.7 °C -13.6 °C
Humitat: Humidity % 58 % 68 %
Velocitat del vent: 0 km/h 15.6 km/h 43.3 km/h
Racha vent: 0 km/h - -
Vent:- - WNW
Pressio: 0 hPa 34750.5 hPa -
Pluja: 0 mm    
Historical Graphs
 
 
Tabular Data for Noviembre 11, 2017
Time Temperature Dew Point Pressure Wind Wind Speed Wind Gust Humidity Rainfall Rate (Hourly) solar Conditions
-17.8 °C -17.8 °C 0 hPa Calm     Humidity % 0 mm SolarRadiationWatts/m^2 W/m2 Conditions
00:00 -11 °C -13.2 °C 34841.9 hPa ESE 38.8 km/h 38.8 km/h 77 % 0 mm 0.0 W/m2 CLR
00:05 -11 °C -13.2 °C 34841.9 hPa NW 50.7 km/h 50.7 km/h 77 % 0 mm 0.0 W/m2 CLR
00:10 -11 °C -13.2 °C 34831.8 hPa NNW 38.8 km/h 38.8 km/h 77 % 0 mm 0.0 W/m2 CLR
00:15 -11 °C -13.2 °C 34841.9 hPa NW 35.7 km/h 35.7 km/h 77 % 0 mm 0.0 W/m2 CLR
00:20 -11 °C -13.2 °C 34831.8 hPa NW 41.7 km/h 41.7 km/h 77 % 0 mm 0.0 W/m2 CLR
00:25 -11 °C -13.2 °C 34841.9 hPa NNW 41.7 km/h 41.7 km/h 77 % 0 mm 0.0 W/m2 CLR
00:30 -11.3 °C -13.4 °C 34841.9 hPa NW 33.6 km/h 33.6 km/h 77 % 0 mm 0.0 W/m2 CLR
00:35 -11.3 °C -13.4 °C 34841.9 hPa NW 29.8 km/h 29.8 km/h 77 % 0 mm 0.0 W/m2 CLR
00:40 -11.3 °C -13.6 °C 34841.9 hPa NW 38.8 km/h 38.8 km/h 76 % 0 mm 0.0 W/m2 CLR
00:45 -11.3 °C -13.6 °C 34841.9 hPa NW 38.8 km/h 38.8 km/h 76 % 0 mm 0.0 W/m2 CLR
00:50 -11.3 °C -13.6 °C 34841.9 hPa WNW 33.6 km/h 33.6 km/h 76 % 0 mm 0.0 W/m2 CLR
00:55 -11.3 °C -13.6 °C 34841.9 hPa NW 35.7 km/h 35.7 km/h 76 % 0 mm 0.0 W/m2 CLR
01:00 -11.3 °C -13.6 °C 34841.9 hPa NW 28.5 km/h 28.5 km/h 76 % 0 mm 0.0 W/m2 CLR
01:05 -11.3 °C -13.6 °C 34841.9 hPa NW 41.7 km/h 41.7 km/h 76 % 0 mm 0.0 W/m2 CLR
01:10 -11.3 °C -13.6 °C 34841.9 hPa WNW 29.8 km/h 29.8 km/h 76 % 0 mm 0.0 W/m2 CLR
01:15 -11.3 °C -13.6 °C 34841.9 hPa NW 41.4 km/h 41.4 km/h 76 % 0 mm 0.0 W/m2 CLR
01:20 -11.3 °C -13.7 °C 34831.8 hPa NW 31.1 km/h 31.1 km/h 75 % 0 mm 0.0 W/m2 CLR
01:25 -11.3 °C -13.6 °C 34831.8 hPa WNW 50.7 km/h 50.7 km/h 76 % 0 mm 0.0 W/m2 CLR
01:30 -11.3 °C -13.6 °C 34831.8 hPa NW 41.4 km/h 41.4 km/h 76 % 0 mm 0.0 W/m2 CLR
01:35 -11.3 °C -13.6 °C 34831.8 hPa NW 50.7 km/h 50.7 km/h 76 % 0 mm 0.0 W/m2 CLR
01:40 -11.3 °C -13.6 °C 34831.8 hPa NW 50.7 km/h 50.7 km/h 76 % 0 mm 0.0 W/m2 CLR
01:45 -11.3 °C -13.7 °C 34818.2 hPa WNW 47.6 km/h 47.6 km/h 75 % 0 mm 0.0 W/m2 CLR
01:50 -11.3 °C -13.7 °C 34818.2 hPa NW 50.7 km/h 50.7 km/h 75 % 0 mm 0.0 W/m2 CLR
01:55 -11.3 °C -13.7 °C 34831.8 hPa NW 47.6 km/h 47.6 km/h 75 % 0 mm 0.0 W/m2 CLR
02:00 -11.3 °C -13.7 °C 34831.8 hPa NNW 41.7 km/h 41.7 km/h 75 % 0 mm 0.0 W/m2 CLR
02:05 -11.3 °C -13.7 °C 34831.8 hPa WNW 32.8 km/h 32.8 km/h 75 % 0 mm 0.0 W/m2 CLR
02:10 -11.3 °C -13.7 °C 34831.8 hPa NW 47.6 km/h 47.6 km/h 75 % 0 mm 0.0 W/m2 CLR
02:15 -11.3 °C -13.8 °C 34831.8 hPa NNW 44.7 km/h 44.7 km/h 74 % 0 mm 0.0 W/m2 CLR
02:20 -11 °C -13.5 °C 34831.8 hPa NW 38.8 km/h 38.8 km/h 74 % 0 mm 0.0 W/m2 CLR
02:25 -11.3 °C -13.8 °C 34831.8 hPa WNW 35.7 km/h 35.7 km/h 74 % 0 mm 0.0 W/m2 CLR
02:30 -11.3 °C -13.8 °C 34831.8 hPa NW 50.7 km/h 50.7 km/h 74 % 0 mm 0.0 W/m2 CLR
02:35 -11.3 °C -13.8 °C 34831.8 hPa NW 44.7 km/h 44.7 km/h 74 % 0 mm 0.0 W/m2 CLR
02:40 -11.3 °C -13.8 °C 34831.8 hPa NW 47.6 km/h 47.6 km/h 74 % 0 mm 0.0 W/m2 CLR
02:45 -11.3 °C -13.8 °C 34831.8 hPa NW 41.7 km/h 41.7 km/h 74 % 0 mm 0.0 W/m2 CLR
02:50 -11.3 °C -13.8 °C 34831.8 hPa NW 38.8 km/h 38.8 km/h 74 % 0 mm 0.0 W/m2 CLR
02:56 -11.3 °C -13.8 °C 34831.8 hPa WNW 41.7 km/h 41.7 km/h 74 % 0 mm 0.0 W/m2 CLR
03:01 -11.3 °C -13.8 °C 34818.2 hPa NW 41.7 km/h 41.7 km/h 74 % 0 mm 0.0 W/m2 CLR
03:06 -11.3 °C -13.8 °C 34818.2 hPa NNW 38.8 km/h 38.8 km/h 74 % 0 mm 0.0 W/m2 CLR
03:11 -11.3 °C -13.7 °C 34818.2 hPa NW 62.6 km/h 62.6 km/h 75 % 0 mm 0.0 W/m2 CLR
03:16 -11.3 °C -13.7 °C 34808.1 hPa NNW 64.7 km/h 64.7 km/h 75 % 0 mm 0.0 W/m2 CLR
03:21 -11.6 °C -14 °C 34808.1 hPa NNW 57 km/h 57 km/h 75 % 0 mm 0.0 W/m2 CLR
03:26 -11.6 °C -14 °C 34808.1 hPa North 50.7 km/h 50.7 km/h 75 % 0 mm 0.0 W/m2 CLR
03:31 -11.6 °C -14 °C 34808.1 hPa NNW 47.6 km/h 47.6 km/h 75 % 0 mm 0.0 W/m2 CLR
03:36 -11.6 °C -13.8 °C 34808.1 hPa North 44.1 km/h 44.1 km/h 76 % 0 mm 0.0 W/m2 CLR
03:41 -11.6 °C -13.8 °C 34818.2 hPa WNW 35.7 km/h 35.7 km/h 76 % 0 mm 0.0 W/m2 CLR
03:46 -11.6 °C -13.8 °C 34818.2 hPa NNW 38.8 km/h 38.8 km/h 76 % 0 mm 0.0 W/m2 CLR
03:51 -11.6 °C -13.8 °C 34818.2 hPa NW 35.7 km/h 35.7 km/h 76 % 0 mm 0.0 W/m2 CLR
03:53 -11.6 °C -13.8 °C 34818.2 hPa NW 33.6 km/h 33.6 km/h 77 % 0 mm 0.0 W/m2 CLR
03:58 -11.6 °C -13.8 °C 34831.8 hPa WNW 32.8 km/h 32.8 km/h 77 % 0 mm 0.0 W/m2 CLR
04:03 -11.6 °C -13.8 °C 34831.8 hPa NW 29.8 km/h 29.8 km/h 77 % 0 mm 0.0 W/m2 CLR
04:08 -11.6 °C -13.8 °C 34818.2 hPa WNW 29.8 km/h 29.8 km/h 77 % 0 mm 0.0 W/m2 CLR
04:13 -11.6 °C -13.8 °C 34818.2 hPa NW 50.7 km/h 50.7 km/h 77 % 0 mm 0.0 W/m2 CLR
04:18 -11.6 °C -13.8 °C 34818.2 hPa NW 41.7 km/h 41.7 km/h 76 % 0 mm 0.0 W/m2 CLR
04:24 -11.3 °C -13.6 °C 34818.2 hPa NW 44.7 km/h 44.7 km/h 76 % 0 mm 0.0 W/m2 CLR
04:25 -11.3 °C -13.6 °C 34818.2 hPa NW 44.7 km/h 44.7 km/h 76 % 0 mm 0.0 W/m2 CLR
04:30 -11.3 °C -13.6 °C 34818.2 hPa NW 50.7 km/h 50.7 km/h 76 % 0 mm 0.0 W/m2 CLR
04:35 -11.3 °C -13.6 °C 34818.2 hPa WNW 38.8 km/h 38.8 km/h 76 % 0 mm 0.0 W/m2 CLR
04:40 -11.3 °C -13.6 °C 34818.2 hPa WNW 50.7 km/h 50.7 km/h 76 % 0 mm 0.0 W/m2 CLR
04:45 -11.3 °C -13.6 °C 34818.2 hPa WNW 35.7 km/h 35.7 km/h 76 % 0 mm 0.0 W/m2 CLR
04:50 -11.6 °C -13.8 °C 34818.2 hPa NW 49.2 km/h 49.2 km/h 76 % 0 mm 0.0 W/m2 CLR
04:55 -11.6 °C -13.8 °C 34818.2 hPa WNW 26.9 km/h 26.9 km/h 76 % 0 mm 0.0 W/m2 CLR
05:00 -11.6 °C -13.8 °C 34818.2 hPa NNW 46.7 km/h 46.7 km/h 77 % 0 mm 0.0 W/m2 CLR
05:05 -11.6 °C -13.8 °C 34808.1 hPa NW 29.8 km/h 29.8 km/h 77 % 0 mm 0.0 W/m2 CLR
05:10 -11.6 °C -13.8 °C 34808.1 hPa SW 44.7 km/h 44.7 km/h 77 % 0 mm 0.0 W/m2 CLR
05:15 -11.6 °C -13.8 °C 34808.1 hPa NW 31.1 km/h 31.1 km/h 76 % 0 mm 0.0 W/m2 CLR
05:20 -11.6 °C -13.8 °C 34808.1 hPa WNW 50.7 km/h 50.7 km/h 77 % 0 mm 0.0 W/m2 CLR
05:25 -11.6 °C -13.8 °C 34818.2 hPa WNW 44.7 km/h 44.7 km/h 77 % 0 mm 0.0 W/m2 CLR
05:30 -11.6 °C -13.8 °C 34808.1 hPa West 26.9 km/h 26.9 km/h 76 % 0 mm 0.0 W/m2 CLR
05:35 -11.6 °C -13.8 °C 34808.1 hPa NNW 41.7 km/h 41.7 km/h 77 % 0 mm 0.0 W/m2 CLR
05:40 -11.6 °C -13.8 °C 34818.2 hPa NNW 32.8 km/h 32.8 km/h 77 % 0 mm 0.0 W/m2 CLR
05:45 -11.6 °C -13.8 °C 34818.2 hPa NNW 47.6 km/h 47.6 km/h 77 % 0 mm 0.0 W/m2 CLR
05:50 -11.9 °C -14.1 °C 34818.2 hPa NW 38.8 km/h 38.8 km/h 77 % 0 mm 0.0 W/m2 CLR
05:55 -11.9 °C -14.1 °C 34808.1 hPa WNW 47.6 km/h 47.6 km/h 77 % 0 mm 0.0 W/m2 CLR
06:00 -11.6 °C -13.8 °C 34808.1 hPa NNW 56.6 km/h 56.6 km/h 77 % 0 mm 0.0 W/m2 CLR
06:05 -11.6 °C -13.8 °C 34808.1 hPa WNW 41.7 km/h 41.7 km/h 77 % 0 mm 0.0 W/m2 CLR
06:10 -11.6 °C -13.8 °C 34808.1 hPa NW 41.7 km/h 41.7 km/h 77 % 0 mm 0.0 W/m2 CLR
06:15 -11.6 °C -13.8 °C 34808.1 hPa NNW 33.6 km/h 33.6 km/h 77 % 0 mm 0.0 W/m2 CLR
06:20 -11.6 °C -13.8 °C 34808.1 hPa WNW 47.6 km/h 47.6 km/h 77 % 0 mm 0.0 W/m2 CLR
06:25 -11.6 °C -13.8 °C 34808.1 hPa NW 59.5 km/h 59.5 km/h 77 % 0 mm 0.0 W/m2 CLR
06:30 -11.6 °C -13.8 °C 34808.1 hPa NW 65.5 km/h 65.5 km/h 77 % 0 mm 0.0 W/m2 CLR
06:35 -11.6 °C -13.8 °C 34797.9 hPa WNW 44.7 km/h 44.7 km/h 77 % 0 mm 0.0 W/m2 CLR
06:40 -11.6 °C -13.8 °C 34808.1 hPa NNW 53.6 km/h 53.6 km/h 77 % 0 mm 0.0 W/m2 CLR
06:45 -11.6 °C -13.8 °C 34808.1 hPa NW 68.6 km/h 68.6 km/h 77 % 0 mm 0.0 W/m2 CLR
06:50 -11.9 °C -14.1 °C 34808.1 hPa NNW 62.6 km/h 62.6 km/h 77 % 0 mm 0.0 W/m2 CLR
06:55 -11.9 °C -14.1 °C 34808.1 hPa NNW 50.7 km/h 50.7 km/h 77 % 0 mm 0.0 W/m2 CLR
07:00 -11.6 °C -13.8 °C 34808.1 hPa NNW 57 km/h 57 km/h 77 % 0 mm 0.0 W/m2 CLR
07:05 -11.6 °C -13.8 °C 34808.1 hPa NNW 59.5 km/h 59.5 km/h 77 % 0 mm 0.0 W/m2 CLR
07:10 -11.6 °C -13.8 °C 34808.1 hPa NW 59.5 km/h 59.5 km/h 77 % 0 mm 0.0 W/m2 CLR
07:15 -11.6 °C -13.7 °C 34808.1 hPa NNW 59.5 km/h 59.5 km/h 78 % 0 mm 0.0 W/m2 CLR
07:20 -11.6 °C -13.7 °C 34808.1 hPa NW 50.7 km/h 50.7 km/h 78 % 0 mm 0.0 W/m2 CLR
07:25 -11.9 °C -13.9 °C 34808.1 hPa NW 59.5 km/h 59.5 km/h 78 % 0 mm 0.0 W/m2 CLR
07:30 -11.9 °C -14.1 °C 34818.2 hPa NW 38.8 km/h 38.8 km/h 77 % 0 mm 0.0 W/m2 CLR
07:35 -11.6 °C -13.8 °C 34818.2 hPa NW 29.8 km/h 29.8 km/h 77 % 0 mm 0.0 W/m2 OVC
07:40 -11.9 °C -13.9 °C 34818.2 hPa NW 35.7 km/h 35.7 km/h 78 % 0 mm 5.0 W/m2 OVC
07:41 -11.6 °C -13.8 °C 34818.2 hPa NW 32.8 km/h 32.8 km/h 77 % 0 mm 5.0 W/m2 OVC
07:46 -11.9 °C -14.1 °C 34818.2 hPa WNW 29.8 km/h 29.8 km/h 77 % 0 mm 5.0 W/m2 OVC
07:51 -11.9 °C -14.1 °C 34818.2 hPa WNW 23.8 km/h 23.8 km/h 77 % 0 mm 9.0 W/m2 OVC
07:56 -11.9 °C -14.1 °C 34831.8 hPa NW 29.8 km/h 29.8 km/h 77 % 0 mm 11.0 W/m2 OVC
08:01 -11.9 °C -14.1 °C 34818.2 hPa NW 23.8 km/h 23.8 km/h 77 % 0 mm 12.0 W/m2 OVC
08:06 -11.9 °C -13.9 °C 34831.8 hPa WNW 35.7 km/h 35.7 km/h 78 % 0 mm 16.0 W/m2 OVC
08:11 -11.9 °C -14.1 °C 34831.8 hPa WNW 41.7 km/h 41.7 km/h 77 % 0 mm 21.0 W/m2 OVC
08:16 -11.9 °C -14.1 °C 34831.8 hPa NW 26.9 km/h 26.9 km/h 77 % 0 mm 28.0 W/m2 OVC
08:21 -11.9 °C -14.1 °C 34831.8 hPa WNW 29.8 km/h 29.8 km/h 77 % 0 mm 32.0 W/m2 OVC
08:26 -11.6 °C -13.8 °C 34831.8 hPa NW 41.7 km/h 41.7 km/h 76 % 0 mm 35.0 W/m2 OVC
08:31 -11.6 °C -13.8 °C 34831.8 hPa NW 31.1 km/h 31.1 km/h 76 % 0 mm 40.0 W/m2 OVC
08:36 -11.6 °C -13.8 °C 34831.8 hPa NW 29.8 km/h 29.8 km/h 76 % 0 mm 62.0 W/m2 OVC
08:41 -11.6 °C -13.8 °C 34831.8 hPa NW 26.9 km/h 26.9 km/h 76 % 0 mm 67.0 W/m2 OVC
08:46 -11.3 °C -13.6 °C 34831.8 hPa WNW 29.8 km/h 29.8 km/h 76 % 0 mm 60.0 W/m2 BKN
08:51 -11.3 °C -13.6 °C 34831.8 hPa NNW 29.8 km/h 29.8 km/h 76 % 0 mm 62.0 W/m2 SCT
08:56 -11.3 °C -13.6 °C 34831.8 hPa NW 20.9 km/h 20.9 km/h 76 % 0 mm 65.0 W/m2 SCT
09:01 -11.3 °C -13.7 °C 34831.8 hPa WNW 23.8 km/h 23.8 km/h 75 % 0 mm 81.0 W/m2 FEW
09:06 -11.3 °C -13.7 °C 34831.8 hPa WNW 29.8 km/h 29.8 km/h 75 % 0 mm 105.0 W/m2 FEW
09:11 -11.3 °C -13.7 °C 34841.9 hPa WNW 35.7 km/h 35.7 km/h 75 % 0 mm 127.0 W/m2 CLR
09:16 -11 °C -13.4 °C 34841.9 hPa NNW 29.8 km/h 29.8 km/h 75 % 0 mm 121.0 W/m2 CLR
09:21 -11 °C -13.4 °C 34841.9 hPa NW 38.8 km/h 38.8 km/h 75 % 0 mm 179.0 W/m2 CLR
09:26 -11 °C -13.5 °C 34841.9 hPa WNW 29.8 km/h 29.8 km/h 74 % 0 mm 207.0 W/m2 CLR
09:31 -11 °C -13.5 °C 34841.9 hPa NW 26.9 km/h 26.9 km/h 74 % 0 mm 172.0 W/m2 CLR
09:36 -10.7 °C -13.3 °C 34831.8 hPa WNW 23.8 km/h 23.8 km/h 73 % 0 mm 151.0 W/m2 CLR
09:41 -10.7 °C -13.3 °C 34841.9 hPa NW 35.7 km/h 35.7 km/h 73 % 0 mm 311.0 W/m2 CLR
09:46 -10.4 °C -13 °C 34841.9 hPa NNW 36.2 km/h 36.2 km/h 73 % 0 mm 297.0 W/m2 CLR
09:51 -10.4 °C -13.1 °C 34841.9 hPa NNW 38.8 km/h 38.8 km/h 72 % 0 mm 323.0 W/m2 CLR
09:56 -10.4 °C -13.1 °C 34841.9 hPa NNW 36.2 km/h 36.2 km/h 72 % 0 mm 214.0 W/m2 CLR
10:01 -10.4 °C -13.1 °C 34841.9 hPa WNW 35.7 km/h 35.7 km/h 72 % 0 mm 204.0 W/m2 CLR
10:06 -10.4 °C -13.1 °C 34841.9 hPa NW 50.7 km/h 50.7 km/h 72 % 0 mm 420.0 W/m2 CLR
10:11 -10.1 °C -12.9 °C 34841.9 hPa WNW 44.7 km/h 44.7 km/h 71 % 0 mm 399.0 W/m2 CLR
10:16 -10.1 °C -13.1 °C 34841.9 hPa NNW 41.4 km/h 41.4 km/h 70 % 0 mm 406.0 W/m2 CLR
10:21 -9.8 °C -12.9 °C 34831.8 hPa North 38.8 km/h 38.8 km/h 69 % 0 mm 387.0 W/m2 CLR
10:26 -9.8 °C -13 °C 34831.8 hPa North 47.6 km/h 47.6 km/h 68 % 0 mm 316.0 W/m2 CLR
10:31 -9.8 °C -13 °C 34831.8 hPa NNW 57 km/h 57 km/h 68 % 0 mm 427.0 W/m2 CLR
10:37 -9.8 °C -13 °C 34831.8 hPa North 47.6 km/h 47.6 km/h 68 % 0 mm 172.0 W/m2 CLR
10:42 -9.8 °C -13 °C 34831.8 hPa NW 35.7 km/h 35.7 km/h 68 % 0 mm 469.0 W/m2 CLR
10:47 -9.4 °C -12.8 °C 34831.8 hPa NNW 53.6 km/h 53.6 km/h 67 % 0 mm 308.0 W/m2 CLR
10:52 -9.4 °C -12.9 °C 34831.8 hPa NNW 59.5 km/h 59.5 km/h 66 % 0 mm 178.0 W/m2 CLR
10:57 -9.1 °C -12.7 °C 34831.8 hPa NW 68.6 km/h 68.6 km/h 66 % 0 mm 178.0 W/m2 CLR
11:02 -9.1 °C -12.7 °C 34831.8 hPa WNW 53.6 km/h 53.6 km/h 66 % 0 mm 482.0 W/m2 CLR
11:07 -9.1 °C -12.7 °C 34831.8 hPa North 47.6 km/h 47.6 km/h 66 % 0 mm 244.0 W/m2 CLR
11:12 -9.1 °C -12.7 °C 34831.8 hPa NNW 59.5 km/h 59.5 km/h 66 % 0 mm 387.0 W/m2 CLR
11:17 -9.1 °C -12.8 °C 34831.8 hPa North 53.6 km/h 53.6 km/h 65 % 0 mm 582.0 W/m2 CLR
11:22 -9.1 °C -12.8 °C 34831.8 hPa North 56.6 km/h 56.6 km/h 65 % 0 mm 380.0 W/m2 CLR
11:27 -9.1 °C -12.8 °C 34831.8 hPa North 50.7 km/h 50.7 km/h 65 % 0 mm 255.0 W/m2 CLR
11:32 -9.1 °C -12.8 °C 34831.8 hPa North 67.3 km/h 67.3 km/h 65 % 0 mm 364.0 W/m2 CLR
11:37 -8.8 °C -12.5 °C 34818.2 hPa NNW 62.6 km/h 62.6 km/h 65 % 0 mm 309.0 W/m2 CLR
11:42 -8.8 °C -12.5 °C 34831.8 hPa North 56.6 km/h 56.6 km/h 65 % 0 mm 497.0 W/m2 CLR
11:47 -8.8 °C -12.6 °C 34831.8 hPa North 62.6 km/h 62.6 km/h 64 % 0 mm 510.0 W/m2 CLR
11:52 -8.8 °C -12.6 °C 34831.8 hPa NNW 47.6 km/h 47.6 km/h 64 % 0 mm 431.0 W/m2 CLR
11:57 -8.8 °C -12.7 °C 34831.8 hPa NNW 47.6 km/h 47.6 km/h 63 % 0 mm 415.0 W/m2 CLR
12:02 -8.8 °C -12.7 °C 34818.2 hPa North 50.7 km/h 50.7 km/h 63 % 0 mm 668.0 W/m2 CLR
12:07 -8.8 °C -12.6 °C 34818.2 hPa NNW 36.2 km/h 36.2 km/h 64 % 0 mm 522.0 W/m2 CLR
12:12 -8.8 °C -12.7 °C 34818.2 hPa NNW 59.5 km/h 59.5 km/h 63 % 0 mm 636.0 W/m2 CLR
12:17 -8.5 °C -12.4 °C 34818.2 hPa North 62.1 km/h 62.1 km/h 63 % 0 mm 629.0 W/m2 CLR
12:22 -8.8 °C -12.6 °C 34808.1 hPa NNW 47.6 km/h 47.6 km/h 64 % 0 mm 603.0 W/m2 CLR
12:27 -8.8 °C -12.7 °C 34808.1 hPa NNW 62.1 km/h 62.1 km/h 63 % 0 mm 603.0 W/m2 CLR
12:32 -8.8 °C -12.7 °C 34808.1 hPa North 50.7 km/h 50.7 km/h 63 % 0 mm 413.0 W/m2 CLR
12:37 -8.8 °C -12.7 °C 34797.9 hPa NNW 38.8 km/h 38.8 km/h 63 % 0 mm 599.0 W/m2 CLR
12:42 -8.5 °C -12.6 °C 34797.9 hPa NNW 53.6 km/h 53.6 km/h 62 % 0 mm 596.0 W/m2 CLR
12:47 -8.2 °C -12.3 °C 34797.9 hPa North 44.1 km/h 44.1 km/h 62 % 0 mm 543.0 W/m2 CLR
12:52 -8.2 °C -12.4 °C 34797.9 hPa North 50.7 km/h 50.7 km/h 61 % 0 mm 475.0 W/m2 CLR
12:57 -8.2 °C -12.4 °C 34797.9 hPa North 57 km/h 57 km/h 61 % 0 mm 483.0 W/m2 CLR
13:02 -8.2 °C -12.4 °C 34797.9 hPa North 56.6 km/h 56.6 km/h 61 % 0 mm 575.0 W/m2 CLR
13:07 -8.2 °C -12.4 °C 34784.4 hPa North 50.7 km/h 50.7 km/h 61 % 0 mm 608.0 W/m2 CLR
13:12 -8.5 °C -12.8 °C 34784.4 hPa North 50.7 km/h 50.7 km/h 60 % 0 mm 153.0 W/m2 CLR
13:17 -8.5 °C -12.7 °C 34784.4 hPa North 49.2 km/h 49.2 km/h 61 % 0 mm 118.0 W/m2 CLR
13:22 -8.5 °C -12.7 °C 34784.4 hPa NW 53.6 km/h 53.6 km/h 61 % 0 mm 619.0 W/m2 CLR
13:27 -8.2 °C -12.7 °C 34774.2 hPa North 53.6 km/h 53.6 km/h 59 % 0 mm 628.0 W/m2 CLR
13:32 -7.9 °C -12.4 °C 34774.2 hPa NNW 56.6 km/h 56.6 km/h 59 % 0 mm 592.0 W/m2 CLR
13:37 -8.2 °C -12.7 °C 34774.2 hPa NW 44.7 km/h 44.7 km/h 59 % 0 mm 459.0 W/m2 CLR
13:42 -7.9 °C -12.6 °C 34774.2 hPa NW 41.7 km/h 41.7 km/h 58 % 0 mm 596.0 W/m2 CLR
13:47 -8.2 °C -12.7 °C 34774.2 hPa North 50.7 km/h 50.7 km/h 59 % 0 mm 95.0 W/m2 CLR
13:52 -8.5 °C -12.8 °C 34774.2 hPa NW 53.6 km/h 53.6 km/h 60 % 0 mm 100.0 W/m2 CLR
13:57 -8.8 °C -13 °C 34760.7 hPa NW 33.6 km/h 33.6 km/h 61 % 0 mm 575.0 W/m2 CLR
14:02 -8.2 °C -12.7 °C 34760.7 hPa NW 59.5 km/h 59.5 km/h 59 % 0 mm 613.0 W/m2 CLR
14:07 -8.2 °C -12.6 °C 34760.7 hPa NW 33.6 km/h 33.6 km/h 60 % 0 mm 469.0 W/m2 CLR
14:12 -7.9 °C -12.6 °C 34760.7 hPa NNE 59.5 km/h 59.5 km/h 58 % 0 mm 557.0 W/m2 CLR
14:17 -7.9 °C -12.6 °C 34760.7 hPa North 53.6 km/h 53.6 km/h 58 % 0 mm 404.0 W/m2 CLR
14:22 -8.2 °C -12.7 °C 34760.7 hPa NNW 38.8 km/h 38.8 km/h 59 % 0 mm 236.0 W/m2 CLR
14:27 -7.9 °C -12.6 °C 34760.7 hPa NNW 53.6 km/h 53.6 km/h 58 % 0 mm 121.0 W/m2 CLR
14:32 -8.2 °C -12.7 °C 34750.5 hPa NNW 44.7 km/h 44.7 km/h 59 % 0 mm 540.0 W/m2 CLR
14:37 -7.9 °C -12.6 °C 34750.5 hPa NNW 51.8 km/h 51.8 km/h 58 % 0 mm 139.0 W/m2 CLR
14:43 -8.2 °C -12.7 °C 34750.5 hPa North 41.4 km/h 41.4 km/h 59 % 0 mm 139.0 W/m2 CLR
14:47 -8.5 °C -13 °C 34750.5 hPa NNW 44.7 km/h 44.7 km/h 59 % 0 mm 151.0 W/m2 CLR
14:52 -8.5 °C -13 °C 34750.5 hPa NNW 38.8 km/h 38.8 km/h 59 % 0 mm 153.0 W/m2 CLR
14:58 -8.5 °C -13 °C 34750.5 hPa North 53.6 km/h 53.6 km/h 59 % 0 mm 113.0 W/m2 CLR
15:03 -8.5 °C -12.8 °C 34750.5 hPa NNW 36.2 km/h 36.2 km/h 60 % 0 mm 232.0 W/m2 CLR
15:08 -8.2 °C -12.7 °C 34750.5 hPa NW 35.7 km/h 35.7 km/h 59 % 0 mm 218.0 W/m2 CLR
15:13 -8.2 °C -12.8 °C 34750.5 hPa NNW 33.6 km/h 33.6 km/h 58 % 0 mm 185.0 W/m2 CLR
15:18 -8.2 °C -12.8 °C 34750.5 hPa North 50.7 km/h 50.7 km/h 58 % 0 mm 176.0 W/m2 CLR
15:23 -8.2 °C -12.8 °C 34750.5 hPa NW 47.6 km/h 47.6 km/h 58 % 0 mm 234.0 W/m2 CLR
15:28 -8.2 °C -12.8 °C 34750.5 hPa NNE 62.6 km/h 62.6 km/h 58 % 0 mm 195.0 W/m2 CLR
15:33 -8.2 °C -12.8 °C 34750.5 hPa NNW 50.7 km/h 50.7 km/h 58 % 0 mm 179.0 W/m2 CLR
15:38 -8.2 °C -12.8 °C 34750.5 hPa NNE 46.7 km/h 46.7 km/h 58 % 0 mm 142.0 W/m2 CLR
15:43 -8.2 °C -12.8 °C 34750.5 hPa NW 44.7 km/h 44.7 km/h 58 % 0 mm 251.0 W/m2 CLR
15:48 -8.2 °C -12.8 °C 34750.5 hPa NW 44.7 km/h 44.7 km/h 58 % 0 mm 162.0 W/m2 CLR
15:53 -8.2 °C -12.8 °C 34750.5 hPa NNW 35.7 km/h 35.7 km/h 58 % 0 mm 84.0 W/m2 CLR
15:58 -8.2 °C -12.8 °C 34750.5 hPa NNW 56.6 km/h 56.6 km/h 58 % 0 mm 95.0 W/m2 CLR
16:03 -8.2 °C -12.8 °C 34750.5 hPa North 56.6 km/h 56.6 km/h 58 % 0 mm 79.0 W/m2 CLR
16:08 -8.5 °C -13 °C 34750.5 hPa NNW 50.7 km/h 50.7 km/h 59 % 0 mm 88.0 W/m2 CLR
16:13 -8.5 °C -13.2 °C 34750.5 hPa North 68.6 km/h 68.6 km/h 58 % 0 mm 72.0 W/m2 FEW
16:18 -8.5 °C -13 °C 34750.5 hPa NNW 50.7 km/h 50.7 km/h 59 % 0 mm 95.0 W/m2 FEW
16:23 -8.5 °C -13 °C 34750.5 hPa North 35.7 km/h 35.7 km/h 59 % 0 mm 86.0 W/m2 CLR
16:28 -8.5 °C -13.2 °C 34750.5 hPa North 50.7 km/h 50.7 km/h 58 % 0 mm 83.0 W/m2 CLR
16:33 -8.5 °C -13.2 °C 34750.5 hPa North 69.8 km/h 69.8 km/h 58 % 0 mm 72.0 W/m2 FEW
16:38 -8.5 °C -13 °C 34750.5 hPa NW 47.6 km/h 47.6 km/h 59 % 0 mm 74.0 W/m2 FEW
16:43 -8.5 °C -13 °C 34750.5 hPa NW 50.7 km/h 50.7 km/h 59 % 0 mm 60.0 W/m2 FEW
16:48 -8.8 °C -13.3 °C 34750.5 hPa NW 44.7 km/h 44.7 km/h 59 % 0 mm 56.0 W/m2 SCT
16:49 -8.8 °C -13.3 °C 34750.5 hPa NW 41.7 km/h 41.7 km/h 59 % 0 mm 54.0 W/m2 SCT
16:54 -8.8 °C -13.3 °C 34750.5 hPa NNW 50.7 km/h 50.7 km/h 59 % 0 mm 42.0 W/m2 BKN
16:59 -8.8 °C -13.3 °C 34750.5 hPa NNW 41.7 km/h 41.7 km/h 59 % 0 mm 39.0 W/m2 BKN
17:04 -8.8 °C -13.3 °C 34750.5 hPa NNW 44.7 km/h 44.7 km/h 59 % 0 mm 40.0 W/m2 BKN
17:09 -8.8 °C -13.3 °C 34750.5 hPa NNW 51.8 km/h 51.8 km/h 59 % 0 mm 40.0 W/m2 BKN
17:14 -8.8 °C -13.3 °C 34750.5 hPa NW 47.6 km/h 47.6 km/h 59 % 0 mm 37.0 W/m2 BKN
17:19 -8.8 °C -13.3 °C 34750.5 hPa NNW 41.7 km/h 41.7 km/h 59 % 0 mm 25.0 W/m2 BKN
17:24 -8.8 °C -13.2 °C 34750.5 hPa NNW 59.5 km/h 59.5 km/h 60 % 0 mm 26.0 W/m2 BKN
17:29 -8.8 °C -13.2 °C 34750.5 hPa NW 53.6 km/h 53.6 km/h 60 % 0 mm 18.0 W/m2 BKN
17:34 -9.1 °C -13.3 °C 34750.5 hPa NNW 62.6 km/h 62.6 km/h 61 % 0 mm 11.0 W/m2 BKN
17:39 -9.1 °C -13.3 °C 34750.5 hPa NNW 53.6 km/h 53.6 km/h 61 % 0 mm 9.0 W/m2 BKN
17:44 -9.1 °C -13.3 °C 34750.5 hPa NNW 56.6 km/h 56.6 km/h 61 % 0 mm 7.0 W/m2 BKN
17:49 -9.1 °C -13.3 °C 34750.5 hPa NW 44.7 km/h 44.7 km/h 61 % 0 mm 5.0 W/m2 BKN
17:54 -9.1 °C -13.3 °C 34750.5 hPa North 41.7 km/h 41.7 km/h 61 % 0 mm 0.0 W/m2 OVC
17:59 -9.4 °C -13.6 °C 34750.5 hPa NNW 38.8 km/h 38.8 km/h 61 % 0 mm 0.0 W/m2 CLR
18:04 -9.4 °C -13.4 °C 34760.7 hPa NNW 35.7 km/h 35.7 km/h 62 % 0 mm 0.0 W/m2 CLR
18:09 -9.4 °C -13.4 °C 34760.7 hPa North 65.5 km/h 65.5 km/h 62 % 0 mm 0.0 W/m2 CLR
18:14 -9.4 °C -13.4 °C 34760.7 hPa NNW 50.7 km/h 50.7 km/h 62 % 0 mm 0.0 W/m2 CLR
18:19 -9.8 °C -13.8 °C 34760.7 hPa North 50.7 km/h 50.7 km/h 62 % 0 mm 0.0 W/m2 CLR
18:24 -9.8 °C -13.6 °C 34760.7 hPa NNW 59.5 km/h 59.5 km/h 63 % 0 mm 0.0 W/m2 CLR
18:29 -9.8 °C -13.6 °C 34760.7 hPa NW 44.7 km/h 44.7 km/h 63 % 0 mm 0.0 W/m2 CLR
18:34 -9.8 °C -13.6 °C 34774.2 hPa NNW 41.7 km/h 41.7 km/h 63 % 0 mm 0.0 W/m2 CLR
18:39 -9.8 °C -13.6 °C 34774.2 hPa NW 25.9 km/h 25.9 km/h 63 % 0 mm 0.0 W/m2 CLR
18:44 -10.1 °C -13.9 °C 34774.2 hPa WNW 41.7 km/h 41.7 km/h 63 % 0 mm 0.0 W/m2 CLR
18:49 -10.1 °C -13.8 °C 34774.2 hPa NW 47.6 km/h 47.6 km/h 64 % 0 mm 0.0 W/m2 CLR
18:54 -10.1 °C -13.8 °C 34774.2 hPa NW 41.7 km/h 41.7 km/h 64 % 0 mm 0.0 W/m2 CLR
18:59 -10.1 °C -13.8 °C 34774.2 hPa NW 50.7 km/h 50.7 km/h 64 % 0 mm 0.0 W/m2 CLR
19:04 -10.1 °C -13.9 °C 34774.2 hPa NW 50.7 km/h 50.7 km/h 63 % 0 mm 0.0 W/m2 CLR
19:09 -10.1 °C -13.9 °C 34774.2 hPa NNW 41.4 km/h 41.4 km/h 63 % 0 mm 0.0 W/m2 CLR
19:14 -10.1 °C -13.8 °C 34774.2 hPa NW 54.4 km/h 54.4 km/h 64 % 0 mm 0.0 W/m2 CLR
19:19 -10.1 °C -13.8 °C 34774.2 hPa NW 41.7 km/h 41.7 km/h 64 % 0 mm 0.0 W/m2 CLR
19:24 -10.1 °C -13.9 °C 34774.2 hPa NW 31.1 km/h 31.1 km/h 63 % 0 mm 0.0 W/m2 CLR
19:25 -10.1 °C -13.8 °C 34774.2 hPa NW 41.4 km/h 41.4 km/h 64 % 0 mm 0.0 W/m2 CLR
19:30 -10.4 °C -14.1 °C 34774.2 hPa NNW 36.2 km/h 36.2 km/h 64 % 0 mm 0.0 W/m2 CLR
19:35 -10.4 °C -14.1 °C 34774.2 hPa NW 32.8 km/h 32.8 km/h 64 % 0 mm 0.0 W/m2 CLR
19:40 -10.4 °C -13.9 °C 34774.2 hPa NW 35.7 km/h 35.7 km/h 65 % 0 mm 0.0 W/m2 CLR
19:45 -10.4 °C -13.9 °C 34774.2 hPa NNW 38.8 km/h 38.8 km/h 65 % 0 mm 0.0 W/m2 CLR
19:50 -10.4 °C -13.9 °C 34774.2 hPa NNW 54.4 km/h 54.4 km/h 65 % 0 mm 0.0 W/m2 CLR
19:55 -10.4 °C -13.9 °C 34774.2 hPa NW 38.8 km/h 38.8 km/h 65 % 0 mm 0.0 W/m2 CLR
20:00 -10.4 °C -13.9 °C 34774.2 hPa NW 47.6 km/h 47.6 km/h 65 % 0 mm 0.0 W/m2 CLR
20:05 -10.4 °C -13.9 °C 34774.2 hPa NW 35.7 km/h 35.7 km/h 65 % 0 mm 0.0 W/m2 CLR
20:10 -10.4 °C -13.8 °C 34774.2 hPa WNW 32.8 km/h 32.8 km/h 66 % 0 mm 0.0 W/m2 CLR
20:15 -10.4 °C -13.8 °C 34774.2 hPa NW 35.7 km/h 35.7 km/h 66 % 0 mm 0.0 W/m2 CLR
20:20 -10.4 °C -13.8 °C 34774.2 hPa NW 38.8 km/h 38.8 km/h 66 % 0 mm 0.0 W/m2 CLR
20:25 -10.4 °C -13.8 °C 34774.2 hPa WNW 35.7 km/h 35.7 km/h 66 % 0 mm 0.0 W/m2 CLR
20:30 -10.4 °C -13.8 °C 34774.2 hPa NW 32.8 km/h 32.8 km/h 66 % 0 mm 0.0 W/m2 CLR
20:35 -10.7 °C -14.3 °C 34774.2 hPa WNW 35.7 km/h 35.7 km/h 65 % 0 mm 0.0 W/m2 CLR
20:40 -10.7 °C -14.3 °C 34774.2 hPa WNW 36.2 km/h 36.2 km/h 65 % 0 mm 0.0 W/m2 CLR
20:45 -10.7 °C -14.3 °C 34760.7 hPa NW 41.7 km/h 41.7 km/h 65 % 0 mm 0.0 W/m2 CLR
20:50 -10.7 °C -14.3 °C 34760.7 hPa WNW 35.7 km/h 35.7 km/h 65 % 0 mm 0.0 W/m2 CLR
20:56 -10.7 °C -14.3 °C 34760.7 hPa NW 38.8 km/h 38.8 km/h 65 % 0 mm 0.0 W/m2 CLR
21:01 -10.7 °C -14.3 °C 34760.7 hPa NW 44.7 km/h 44.7 km/h 65 % 0 mm 0.0 W/m2 CLR
21:06 -10.7 °C -14.3 °C 34760.7 hPa NW 68.6 km/h 68.6 km/h 65 % 0 mm 0.0 W/m2 CLR
21:11 -10.7 °C -14.3 °C 34760.7 hPa NW 59.5 km/h 59.5 km/h 65 % 0 mm 0.0 W/m2 CLR
21:16 -10.7 °C -14.3 °C 34774.2 hPa NW 38.8 km/h 38.8 km/h 65 % 0 mm 0.0 W/m2 CLR
21:21 -10.7 °C -14.3 °C 34774.2 hPa NW 47.6 km/h 47.6 km/h 65 % 0 mm 0.0 W/m2 CLR
21:26 -10.7 °C -14.3 °C 34774.2 hPa WNW 44.1 km/h 44.1 km/h 65 % 0 mm 0.0 W/m2 CLR
21:30 -10.7 °C -14.3 °C 34760.7 hPa NW 47.6 km/h 47.6 km/h 65 % 0 mm 0.0 W/m2 CLR
21:31 -10.7 °C -14.3 °C 34760.7 hPa NW 47.6 km/h 47.6 km/h 65 % 0 mm 0.0 W/m2 CLR
21:36 -10.7 °C -14.3 °C 34760.7 hPa NW 47.6 km/h 47.6 km/h 65 % 0 mm 0.0 W/m2 CLR
21:41 -10.7 °C -14.3 °C 34750.5 hPa NW 47.6 km/h 47.6 km/h 65 % 0 mm 0.0 W/m2 CLR
21:46 -10.7 °C -14.3 °C 34760.7 hPa WNW 47.6 km/h 47.6 km/h 65 % 0 mm 0.0 W/m2 CLR
21:51 -10.7 °C -14.3 °C 34760.7 hPa NW 41.7 km/h 41.7 km/h 65 % 0 mm 0.0 W/m2 CLR
21:56 -10.7 °C -14.3 °C 34760.7 hPa NW 41.7 km/h 41.7 km/h 65 % 0 mm 0.0 W/m2 CLR
22:01 -10.7 °C -14.3 °C 34760.7 hPa WNW 35.7 km/h 35.7 km/h 65 % 0 mm 0.0 W/m2 CLR
22:06 -10.7 °C -14.4 °C 34760.7 hPa NW 44.7 km/h 44.7 km/h 64 % 0 mm 0.0 W/m2 CLR
22:11 -10.7 °C -14.4 °C 34760.7 hPa West 32.8 km/h 32.8 km/h 64 % 0 mm 0.0 W/m2 CLR
22:16 -11 °C -14.7 °C 34760.7 hPa WNW 32.8 km/h 32.8 km/h 64 % 0 mm 0.0 W/m2 CLR
22:21 -11 °C -14.7 °C 34760.7 hPa NW 23.8 km/h 23.8 km/h 64 % 0 mm 0.0 W/m2 CLR
22:26 -11 °C -14.7 °C 34760.7 hPa NW 44.7 km/h 44.7 km/h 64 % 0 mm 0.0 W/m2 CLR
22:31 -11 °C -14.7 °C 34760.7 hPa NW 38.8 km/h 38.8 km/h 64 % 0 mm 0.0 W/m2 CLR
22:36 -11 °C -14.7 °C 34760.7 hPa WNW 41.7 km/h 41.7 km/h 64 % 0 mm 0.0 W/m2 CLR
22:46 -11 °C -14.6 °C 34760.7 hPa WNW 29.8 km/h 29.8 km/h 65 % 0 mm 0.0 W/m2 CLR
22:51 -11 °C -14.6 °C 34760.7 hPa NW 32.8 km/h 32.8 km/h 65 % 0 mm 0.0 W/m2 CLR
22:56 -11.3 °C -14.8 °C 34760.7 hPa WNW 31.1 km/h 31.1 km/h 65 % 0 mm 0.0 W/m2 CLR
23:01 -11.3 °C -14.8 °C 34760.7 hPa West 29.8 km/h 29.8 km/h 65 % 0 mm 0.0 W/m2 CLR
23:06 -11.3 °C -14.8 °C 34760.7 hPa WSW 23.8 km/h 23.8 km/h 65 % 0 mm 0.0 W/m2 CLR
23:12 -11.3 °C -14.7 °C 34760.7 hPa West 23.8 km/h 23.8 km/h 66 % 0 mm 0.0 W/m2 CLR
23:17 -11.3 °C -14.6 °C 34760.7 hPa WSW 20.8 km/h 20.8 km/h 67 % 0 mm 0.0 W/m2 CLR
23:22 -11.3 °C -14.6 °C 34760.7 hPa West 20.9 km/h 20.9 km/h 67 % 0 mm 0.0 W/m2 CLR
23:27 -11.6 °C -14.9 °C 34760.7 hPa West 26.9 km/h 26.9 km/h 67 % 0 mm 0.0 W/m2 CLR
23:32 -11.6 °C -14.9 °C 34760.7 hPa West 15.6 km/h 15.6 km/h 67 % 0 mm 0.0 W/m2 CLR
23:37 -11.9 °C -15.2 °C 34760.7 hPa WNW 26.9 km/h 26.9 km/h 67 % 0 mm 0.0 W/m2 CLR
23:42 -12.2 °C -15.6 °C 34760.7 hPa WNW 41.7 km/h 41.7 km/h 66 % 0 mm 0.0 W/m2 CLR
23:47 -12.2 °C -15.6 °C 34750.5 hPa NW 32.8 km/h 32.8 km/h 66 % 0 mm 0.0 W/m2 CLR
23:52 -12.2 °C -15.7 °C 34750.5 hPa West 29.8 km/h 29.8 km/h 65 % 0 mm 0.0 W/m2 CLR
23:57 -11.9 °C -15.4 °C 34750.5 hPa WNW 35.7 km/h 35.7 km/h 65 % 0 mm 0.0 W/m2 CLR
Lo Temps de Massalio
Compliments of Weather Underground - 1.25 mb